Time;durP1;ratioP1;P1;durP2;ratioP2;P2;SDS_P1;SDS_P2;PMS_P1;PMS_P2;Temp;Humidity;BMP_temperature;BMP_pressure;BME280_temperature;BME280_humidity;BME280_pressure;Samples;Min_cycle;Max_cycle;Signal;HPM_P1;HPM_P2
2021/09/19 00:02:28;;;;;;;;;;;;;;;16.79;72.56;99718.91;5033646;28;19975;-62
2021/09/19 00:05:15;;;;;;;;;;;;;;;16.78;72.49;99719.81;5033478;28;19928;-61
2021/09/19 00:08:01;;;;;;;;;;;;;;;16.75;72.56;99724.19;5032668;28;19927;-61
2021/09/19 00:10:45;;;;;;;;;;;;;;;16.74;72.29;99722.47;5033368;28;19928;-61
2021/09/19 00:13:29;;;;;;;;;;;;;;;16.73;72.36;99723.38;5033327;28;20062;-61
2021/09/19 00:16:20;;;;;;;;;;;;;;;16.73;72.30;99719.88;5033385;28;19927;-61
2021/09/19 00:19:04;;;;;;;;;;;;;;;16.71;72.37;99713.81;5032275;28;19974;-61
2021/09/19 00:21:48;;;;;;;;;;;;;;;16.70;72.35;99715.56;5033397;28;19967;-63
2021/09/19 00:24:32;;;;;;;;;;;;;;;16.68;72.35;99716.47;5034367;28;20490;-63
2021/09/19 00:27:18;;;;;;;;;;;;;;;16.67;72.24;99713.00;5036919;28;19980;-63
2021/09/19 00:30:04;;;;;;;;;;;;;;;16.66;72.54;99715.63;5036753;28;19928;-63
2021/09/19 00:32:48;;;;;;;;;;;;;;;16.65;72.53;99711.28;5035688;28;20018;-63
2021/09/19 00:35:32;;;;;;;;;;;;;;;16.64;72.52;99715.63;5036928;28;19927;-63
2021/09/19 00:38:16;;;;;;;;;;;;;;;16.63;72.41;99716.53;5036106;28;19967;-62
2021/09/19 00:41:00;;;;;;;;;;;;;;;16.61;72.26;99705.22;5036293;28;19932;-63
2021/09/19 00:43:44;;;;;;;;;;;;;;;16.61;72.48;99707.84;5035450;28;20031;-63
2021/09/19 00:46:28;;;;;;;;;;;;;;;16.60;72.50;99713.94;5035907;28;19967;-62
2021/09/19 00:49:15;;;;;;;;;;;;;;;16.58;72.45;99707.91;5036424;28;20021;-63
2021/09/19 00:51:59;;;;;;;;;;;;;;;16.58;72.37;99705.28;5036043;28;20016;-63
2021/09/19 00:54:44;;;;;;;;;;;;;;;16.57;72.39;99706.16;5036527;28;19928;-62
2021/09/19 00:57:28;;;;;;;;;;;;;;;16.56;72.40;99705.28;5035644;28;20376;-63
2021/09/19 01:00:13;;;;;;;;;;;;;;;16.55;72.38;99705.31;5036570;28;19928;-63
2021/09/19 01:02:57;;;;;;;;;;;;;;;16.56;72.40;99699.19;5034747;28;19928;-63
2021/09/19 01:05:42;;;;;;;;;;;;;;;16.54;72.27;99700.97;5036389;28;19928;-62
2021/09/19 01:08:31;;;;;;;;;;;;;;;16.52;72.54;99695.75;5035046;28;19928;-62
2021/09/19 01:11:16;;;;;;;;;;;;;;;16.53;72.47;99701.84;5034639;28;19928;-63
2021/09/19 01:14:00;;;;;;;;;;;;;;;16.53;72.30;99694.00;5034930;28;20423;-62
2021/09/19 01:16:44;;;;;;;;;;;;;;;16.52;72.28;99694.91;5035235;28;19928;-63
2021/09/19 01:19:31;;;;;;;;;;;;;;;16.51;72.19;99695.78;5035141;28;19943;-62
2021/09/19 01:22:17;;;;;;;;;;;;;;;16.50;72.39;99697.53;5035338;28;20425;-63
2021/09/19 01:25:08;;;;;;;;;;;;;;;16.50;72.42;99701.91;5034926;28;19928;-63
2021/09/19 01:27:52;;;;;;;;;;;;;;;16.49;72.40;99692.31;5034390;28;19975;-63
2021/09/19 01:30:36;;;;;;;;;;;;;;;16.48;72.25;99682.72;5034490;28;19974;-63
2021/09/19 01:33:22;;;;;;;;;;;;;;;16.47;72.41;99676.66;5034624;28;19974;-62
2021/09/19 01:36:07;;;;;;;;;;;;;;;16.48;72.23;99682.72;5034585;28;19928;-63
2021/09/19 01:38:53;;;;;;;;;;;;;;;16.47;72.38;99678.38;5035002;28;19971;-63
2021/09/19 01:41:37;;;;;;;;;;;;;;;16.46;72.16;99679.28;5035212;28;19928;-63
2021/09/19 01:44:21;;;;;;;;;;;;;;;16.45;72.36;99665.34;5034857;28;19927;-62
2021/09/19 01:47:08;;;;;;;;;;;;;;;16.44;72.19;99669.69;5035612;28;20276;-62
2021/09/19 01:49:52;;;;;;;;;;;;;;;16.43;72.38;99667.13;5034844;28;20042;-62
2021/09/19 01:52:36;;;;;;;;;;;;;;;16.43;72.37;99665.34;5035089;28;20015;-62
2021/09/19 01:55:20;;;;;;;;;;;;;;;16.43;72.30;99669.72;5034774;28;20323;-63
2021/09/19 01:58:06;;;;;;;;;;;;;;;16.40;72.35;99665.41;5034175;28;19928;-61
2021/09/19 02:01:00;;;;;;;;;;;;;;;16.40;72.16;99667.16;5034848;28;19967;-61
2021/09/19 02:03:44;;;;;;;;;;;;;;;16.38;72.22;99663.69;5034248;28;19927;-61
2021/09/19 02:06:31;;;;;;;;;;;;;;;16.36;72.32;99666.34;5034881;28;19971;-61
2021/09/19 02:09:18;;;;;;;;;;;;;;;16.35;72.20;99662.00;5034981;28;19927;-61
2021/09/19 02:12:04;;;;;;;;;;;;;;;16.34;72.28;99662.88;5034247;28;20350;-61
2021/09/19 02:14:48;;;;;;;;;;;;;;;16.35;72.31;99666.38;5034845;28;19928;-61
2021/09/19 02:17:32;;;;;;;;;;;;;;;16.34;72.28;99662.03;5034122;28;19928;-62
2021/09/19 02:20:16;;;;;;;;;;;;;;;16.32;72.30;99666.41;5035033;28;20394;-61
2021/09/19 02:23:00;;;;;;;;;;;;;;;16.32;72.32;99666.41;5034969;28;20430;-61
2021/09/19 02:25:44;;;;;;;;;;;;;;;16.32;72.26;99664.66;5033954;28;20394;-62
2021/09/19 02:28:28;;;;;;;;;;;;;;;16.30;72.04;99669.03;5033581;28;19928;-61
2021/09/19 02:31:14;;;;;;;;;;;;;;;16.29;71.95;99659.44;5034328;28;19928;-61
2021/09/19 02:34:01;;;;;;;;;;;;;;;16.28;72.35;99658.59;5034128;28;20426;-61
2021/09/19 02:36:45;;;;;;;;;;;;;;;16.28;72.24;99657.72;5033273;28;19928;-61
2021/09/19 02:39:32;;;;;;;;;;;;;;;16.25;72.15;99655.16;5034194;28;20014;-61
2021/09/19 02:42:21;;;;;;;;;;;;;;;16.26;72.13;99656.91;5033985;28;20314;-61
2021/09/19 02:45:06;;;;;;;;;;;;;;;16.24;72.10;99654.28;5033250;28;20395;-61
2021/09/19 02:47:49;;;;;;;;;;;;;;;16.24;72.14;99645.59;5032641;28;19983;-61
2021/09/19 02:50:33;;;;;;;;;;;;;;;16.23;72.22;99651.72;5033705;28;19968;-61
2021/09/19 02:53:19;;;;;;;;;;;;;;;16.21;72.06;99648.25;5033146;28;20291;-63
2021/09/19 02:56:06;;;;;;;;;;;;;;;16.21;72.31;99649.09;5047651;28;20391;-62
2021/09/19 02:58:53;;;;;;;;;;;;;;;16.20;72.07;99651.75;5034007;28;20399;-61
2021/09/19 03:01:40;;;;;;;;;;;;;;;16.19;72.08;99645.66;5034076;28;19966;-61
2021/09/19 03:04:24;;;;;;;;;;;;;;;16.18;72.13;99646.53;5032922;28;19944;-61
2021/09/19 03:07:08;;;;;;;;;;;;;;;16.17;72.18;99642.19;5034074;28;19928;-61
2021/09/19 03:09:54;;;;;;;;;;;;;;;16.17;72.23;99646.53;5033623;28;19974;-61
2021/09/19 03:12:41;;;;;;;;;;;;;;;16.16;72.29;99639.59;5033972;28;19967;-61
2021/09/19 03:15:25;;;;;;;;;;;;;;;16.14;72.04;99637.84;5034051;28;19975;-61
2021/09/19 03:18:15;;;;;;;;;;;;;;;16.14;72.14;99631.78;5033832;28;19928;-61
2021/09/19 03:20:59;;;;;;;;;;;;;;;16.13;72.19;99630.91;5047164;28;19928;-61
2021/09/19 03:23:43;;;;;;;;;;;;;;;16.12;72.20;99633.53;5033934;28;19929;-61
2021/09/19 03:26:27;;;;;;;;;;;;;;;16.11;72.21;99635.31;5047058;28;20066;-64
2021/09/19 03:29:11;;;;;;;;;;;;;;;16.10;71.98;99636.19;5033912;28;20319;-63
2021/09/19 03:31:55;;;;;;;;;;;;;;;16.11;72.16;99640.53;5033861;28;20337;-62
2021/09/19 03:34:38;;;;;;;;;;;;;;;16.10;72.14;99630.09;5033271;28;20004;-63
2021/09/19 03:37:23;;;;;;;;;;;;;;;16.10;72.04;99635.31;5033327;28;19928;-61
2021/09/19 03:40:08;;;;;;;;;;;;;;;16.08;72.20;99637.06;5033180;28;19928;-61
2021/09/19 03:42:54;;;;;;;;;;;;;;;16.06;72.17;99629.28;5033337;28;19928;-61
2021/09/19 03:45:38;;;;;;;;;;;;;;;16.06;72.27;99634.50;5032686;28;19928;-61
2021/09/19 03:48:25;;;;;;;;;;;;;;;16.04;72.01;99633.66;5033388;28;19928;-62
2021/09/19 03:51:11;;;;;;;;;;;;;;;16.04;72.09;99635.41;5032973;28;19929;-61
2021/09/19 03:53:55;;;;;;;;;;;;;;;16.04;72.04;99640.63;5033286;28;19967;-62
2021/09/19 03:56:44;;;;;;;;;;;;;;;16.02;72.06;99640.63;5033829;28;20051;-62
2021/09/19 03:59:30;;;;;;;;;;;;;;;16.01;71.93;99633.69;5034945;28;19927;-61
2021/09/19 04:02:17;;;;;;;;;;;;;;;16.00;71.86;99636.31;5037139;28;19944;-61
2021/09/19 04:05:02;;;;;;;;;;;;;;;15.97;72.08;99630.25;5037320;28;19975;-62
2021/09/19 04:07:45;;;;;;;;;;;;;;;15.96;72.04;99638.13;5037561;28;19975;-62
2021/09/19 04:10:32;;;;;;;;;;;;;;;15.95;72.04;99636.41;5037229;28;20003;-61
2021/09/19 04:13:18;;;;;;;;;;;;;;;15.95;72.06;99639.84;5036315;28;19928;-61
2021/09/19 04:16:02;;;;;;;;;;;;;;;15.92;71.96;99637.28;5037110;28;19928;-61
2021/09/19 04:18:49;;;;;;;;;;;;;;;15.92;71.85;99646.88;5037187;28;19927;-61
2021/09/19 04:21:36;;;;;;;;;;;;;;;15.93;71.87;99643.38;5037226;28;19967;-61
2021/09/19 04:24:22;;;;;;;;;;;;;;;15.91;71.82;99643.38;5036976;28;19932;-61
2021/09/19 04:27:07;;;;;;;;;;;;;;;15.90;71.99;99659.94;5036516;28;19929;-62
2021/09/19 04:29:50;;;;;;;;;;;;;;;15.90;72.02;99646.88;5036074;28;19939;-62
2021/09/19 04:32:36;;;;;;;;;;;;;;;15.88;71.95;99650.41;5036175;28;19928;-61
2021/09/19 04:35:22;;;;;;;;;;;;;;;15.87;71.86;99648.66;5035717;28;20390;-61
2021/09/19 04:38:09;;;;;;;;;;;;;;;15.86;71.76;99641.72;5036629;28;19928;-61
2021/09/19 04:40:53;;;;;;;;;;;;;;;15.84;71.82;99632.13;5035887;28;19975;-61
2021/09/19 04:43:37;;;;;;;;;;;;;;;15.83;71.82;99643.44;5036257;28;19927;-61
2021/09/19 04:46:21;;;;;;;;;;;;;;;15.83;71.90;99637.38;5036332;28;19927;-63
2021/09/19 04:49:04;;;;;;;;;;;;;;;15.83;71.84;99645.22;5036439;28;20383;-62
2021/09/19 04:51:48;;;;;;;;;;;;;;;15.80;71.98;99640.00;5036486;28;19928;-61
2021/09/19 04:54:32;;;;;;;;;;;;;;;15.80;72.04;99633.03;5035982;28;19928;-62
2021/09/19 04:57:18;;;;;;;;;;;;;;;15.80;71.71;99627.78;5035792;28;19979;-61
2021/09/19 05:00:05;;;;;;;;;;;;;;;15.79;71.82;99625.22;5036343;28;19935;-63
2021/09/19 05:02:50;;;;;;;;;;;;;;;15.79;71.97;99630.44;5034820;28;19979;-61
2021/09/19 05:05:34;;;;;;;;;;;;;;;15.78;72.02;99629.59;5036278;28;20383;-61
2021/09/19 05:08:18;;;;;;;;;;;;;;;15.79;71.99;99627.81;5036353;28;19928;-62
2021/09/19 05:11:02;;;;;;;;;;;;;;;15.78;71.81;99628.72;5034841;28;19982;-63
2021/09/19 05:13:46;;;;;;;;;;;;;;;15.76;71.75;99633.09;5036044;28;19967;-63
2021/09/19 05:16:33;;;;;;;;;;;;;;;15.77;71.86;99642.66;5035446;28;19999;-63
2021/09/19 05:19:23;;;;;;;;;;;;;;;15.76;72.07;99639.19;5036016;28;19928;-63
2021/09/19 05:22:07;;;;;;;;;;;;;;;15.74;71.91;99638.34;5035791;28;19928;-63
2021/09/19 05:24:51;;;;;;;;;;;;;;;15.76;72.01;99633.97;5034766;28;19927;-63
2021/09/19 05:27:35;;;;;;;;;;;;;;;15.75;71.82;99639.19;5035407;28;19928;-63
2021/09/19 05:30:19;;;;;;;;;;;;;;;15.74;71.96;99638.34;5035838;28;19928;-63
2021/09/19 05:33:06;;;;;;;;;;;;;;;15.76;71.85;99641.81;5035187;28;19945;-62
2021/09/19 05:35:53;;;;;;;;;;;;;;;15.74;72.00;99640.94;5035636;28;19982;-63
2021/09/19 05:38:37;;;;;;;;;;;;;;;15.74;71.99;99640.06;5048906;28;19967;-63
2021/09/19 05:41:21;;;;;;;;;;;;;;;15.75;71.84;99642.69;5035411;28;19932;-63
2021/09/19 05:44:04;;;;;;;;;;;;;;;15.75;72.04;99639.19;5035335;28;19928;-63
2021/09/19 05:46:49;;;;;;;;;;;;;;;15.76;72.06;99635.69;5035581;28;20020;-63
2021/09/19 05:49:32;;;;;;;;;;;;;;;15.76;72.04;99633.97;5035596;28;20016;-63
2021/09/19 05:52:16;;;;;;;;;;;;;;;15.76;71.71;99633.09;5035042;28;19928;-63
2021/09/19 05:55:00;;;;;;;;;;;;;;;15.76;72.13;99638.31;5035245;28;20514;-62
2021/09/19 05:57:44;;;;;;;;;;;;;;;15.75;72.05;99641.81;5034780;28;20084;-63
2021/09/19 06:00:28;;;;;;;;;;;;;;;15.74;72.07;99633.13;5033965;28;19967;-63
2021/09/19 06:03:12;;;;;;;;;;;;;;;15.75;71.97;99641.81;5034623;28;19983;-63
2021/09/19 06:05:56;;;;;;;;;;;;;;;15.74;71.97;99640.06;5034892;28;19929;-63
2021/09/19 06:08:43;;;;;;;;;;;;;;;15.74;72.11;99642.69;5034674;28;19932;-63
2021/09/19 06:11:27;;;;;;;;;;;;;;;15.74;72.04;99635.72;5033980;28;19987;-63
2021/09/19 06:14:11;;;;;;;;;;;;;;;15.73;71.85;99634.00;5034863;28;19979;-63
2021/09/19 06:16:54;;;;;;;;;;;;;;;15.74;72.03;99635.72;5035080;28;19928;-62
2021/09/19 06:19:38;;;;;;;;;;;;;;;15.74;72.14;99635.72;5035084;28;19943;-63
2021/09/19 06:22:22;;;;;;;;;;;;;;;15.75;72.13;99636.56;5033858;28;20031;-62
2021/09/19 06:25:06;;;;;;;;;;;;;;;15.75;72.08;99640.06;5034202;28;19928;-63
2021/09/19 06:27:50;;;;;;;;;;;;;;;15.75;72.21;99645.28;5034743;28;20407;-63
2021/09/19 06:30:34;;;;;;;;;;;;;;;15.76;72.13;99651.38;5034776;28;19928;-63
2021/09/19 06:33:18;;;;;;;;;;;;;;;15.75;72.20;99649.63;5034150;28;19928;-62
2021/09/19 06:36:03;;;;;;;;;;;;;;;15.76;72.21;99652.25;5033979;28;19928;-62
2021/09/19 06:38:47;;;;;;;;;;;;;;;15.77;72.34;99658.31;5033399;28;19955;-63
2021/09/19 06:41:30;;;;;;;;;;;;;;;15.77;72.03;99660.94;5033464;28;20411;-63
2021/09/19 06:44:17;;;;;;;;;;;;;;;15.76;72.11;99665.31;5034139;28;19927;-63
2021/09/19 06:47:01;;;;;;;;;;;;;;;15.75;72.01;99660.97;5033203;28;19982;-62
2021/09/19 06:49:45;;;;;;;;;;;;;;;15.76;72.20;99662.69;5033500;28;19927;-63
2021/09/19 06:52:29;;;;;;;;;;;;;;;15.76;72.01;99660.09;5034113;28;20010;-62
2021/09/19 06:55:13;;;;;;;;;;;;;;;15.76;72.12;99657.47;5032923;28;19928;-63
2021/09/19 06:57:57;;;;;;;;;;;;;;;15.76;72.01;99669.66;5034047;28;19968;-63
2021/09/19 07:00:41;;;;;;;;;;;;;;;15.76;72.00;99664.44;5033674;28;19990;-62
2021/09/19 07:03:25;;;;;;;;;;;;;;;15.76;72.07;99667.94;5033362;28;19932;-63
2021/09/19 07:06:09;;;;;;;;;;;;;;;15.78;71.96;99670.50;5034099;28;20436;-63
2021/09/19 07:08:52;;;;;;;;;;;;;;;15.78;72.17;99670.50;5033931;28;19928;-63
2021/09/19 07:11:39;;;;;;;;;;;;;;;15.78;72.09;99674.00;5033020;28;20395;-63
2021/09/19 07:14:23;;;;;;;;;;;;;;;15.79;72.23;99678.34;5033294;28;20403;-63
2021/09/19 07:17:07;;;;;;;;;;;;;;;15.80;72.14;99680.06;5032973;28;20427;-63
2021/09/19 07:19:51;;;;;;;;;;;;;;;15.81;72.22;99686.16;5033818;28;19928;-63
2021/09/19 07:22:36;;;;;;;;;;;;;;;15.83;72.22;99682.63;5033648;28;19971;-63
2021/09/19 07:25:20;;;;;;;;;;;;;;;15.84;72.28;99681.75;5033691;28;19949;-63
2021/09/19 07:28:06;;;;;;;;;;;;;;;15.86;72.17;99680.91;5033582;28;19975;-61
2021/09/19 07:30:50;;;;;;;;;;;;;;;15.89;72.10;99680.88;5032957;28;19987;-62
2021/09/19 07:33:34;;;;;;;;;;;;;;;15.90;72.16;99685.22;5035220;28;20410;-63
2021/09/19 07:36:22;;;;;;;;;;;;;;;15.91;72.39;99693.03;5037632;28;19928;-63
2021/09/19 07:39:06;;;;;;;;;;;;;;;15.94;72.18;99686.94;5037410;28;19928;-61
2021/09/19 07:41:53;;;;;;;;;;;;;;;15.94;72.23;99700.84;5037349;28;19971;-61
2021/09/19 07:44:38;;;;;;;;;;;;;;;15.95;72.22;99699.97;5037044;28;19928;-61
2021/09/19 07:47:25;;;;;;;;;;;;;;;15.96;72.33;99698.22;5036847;28;19967;-61
2021/09/19 07:50:10;;;;;;;;;;;;;;;15.97;72.48;99703.44;5036462;28;19929;-62
2021/09/19 07:52:54;;;;;;;;;;;;;;;15.99;72.32;99706.00;5035964;28;19928;-61
2021/09/19 07:55:38;;;;;;;;;;;;;;;16.00;72.34;99709.50;5036534;28;19928;-61
2021/09/19 07:58:22;;;;;;;;;;;;;;;16.01;72.46;99713.84;5037204;28;20302;-63
2021/09/19 08:01:05;;;;;;;;;;;;;;;16.01;72.47;99722.53;5035954;28;19990;-63
2021/09/19 08:03:49;;;;;;;;;;;;;;;16.01;72.35;99719.94;5037815;28;20019;-63
2021/09/19 08:06:33;;;;;;;;;;;;;;;16.03;72.24;99723.41;5037409;28;19971;-63
2021/09/19 08:09:17;;;;;;;;;;;;;;;16.04;72.53;99724.28;5037462;28;20024;-63
2021/09/19 08:12:02;;;;;;;;;;;;;;;16.06;72.61;99727.72;5036113;28;20032;-63
2021/09/19 08:14:46;;;;;;;;;;;;;;;16.07;72.41;99732.06;5037101;28;19928;-63
2021/09/19 08:17:30;;;;;;;;;;;;;;;16.08;72.56;99732.06;5036891;28;19928;-62
2021/09/19 08:20:15;;;;;;;;;;;;;;;16.08;72.41;99737.28;5036983;28;20284;-63
2021/09/19 08:22:59;;;;;;;;;;;;;;;16.09;72.52;99733.78;5036907;28;20444;-63
2021/09/19 08:25:43;;;;;;;;;;;;;;;16.11;72.39;99731.16;5037570;28;20012;-63
2021/09/19 08:28:27;;;;;;;;;;;;;;;16.13;72.43;99734.63;5036908;28;20019;-63
2021/09/19 08:31:11;;;;;;;;;;;;;;;16.14;72.63;99741.56;5036820;28;19975;-63
2021/09/19 08:33:55;;;;;;;;;;;;;;;16.15;72.69;99738.06;5036509;28;19928;-63
2021/09/19 08:36:39;;;;;;;;;;;;;;;16.16;72.62;99738.94;5036522;28;20026;-63
2021/09/19 08:39:23;;;;;;;;;;;;;;;16.18;72.55;99738.06;5049771;28;19932;-63
2021/09/19 08:42:08;;;;;;;;;;;;;;;16.19;72.51;99742.41;5050030;28;19970;-64
2021/09/19 08:44:51;;;;;;;;;;;;;;;16.21;72.49;99739.75;5035788;28;19928;-62
2021/09/19 08:47:36;;;;;;;;;;;;;;;16.23;72.48;99741.44;5036489;28;20403;-61
2021/09/19 08:50:25;;;;;;;;;;;;;;;16.23;72.59;99741.44;5036813;28;19928;-62
2021/09/19 08:53:11;;;;;;;;;;;;;;;16.25;72.46;99741.44;5049301;28;19927;-61
2021/09/19 08:55:55;;;;;;;;;;;;;;;16.26;72.50;99743.19;5036592;28;20331;-61
2021/09/19 08:58:39;;;;;;;;;;;;;;;16.29;72.55;99748.34;5035501;28;19928;-61
2021/09/19 09:01:23;;;;;;;;;;;;;;;16.30;72.51;99742.25;5034959;28;20438;-61
2021/09/19 09:04:07;;;;;;;;;;;;;;;16.32;72.36;99742.25;5035587;28;19966;-61
2021/09/19 09:06:52;;;;;;;;;;;;;;;16.34;72.36;99743.09;5035505;28;19928;-62
2021/09/19 09:09:36;;;;;;;;;;;;;;;16.36;72.39;99746.53;5035575;28;19944;-61
2021/09/19 09:12:21;;;;;;;;;;;;;;;16.37;72.33;99748.25;5036231;28;19936;-61
2021/09/19 09:15:05;;;;;;;;;;;;;;;16.38;72.42;99740.41;5036359;28;19928;-61
2021/09/19 09:17:49;;;;;;;;;;;;;;;16.40;72.41;99743.88;5034785;28;19928;-61
2021/09/19 09:20:52;;;;;;;;;;;;;;;16.42;72.56;99743.84;5036202;28;19944;-61
2021/09/19 09:23:38;;;;;;;;;;;;;;;16.43;72.36;99738.59;5035832;28;19929;-61
2021/09/19 09:26:26;;;;;;;;;;;;;;;16.47;72.50;99735.94;5035563;28;19928;-61
2021/09/19 09:29:11;;;;;;;;;;;;;;;16.47;72.23;99730.69;5035043;28;20039;-62
2021/09/19 09:31:58;;;;;;;;;;;;;;;16.48;72.51;99732.44;5035309;28;19928;-62
2021/09/19 09:34:46;;;;;;;;;;;;;;;16.49;72.39;99740.28;5048642;28;19928;-62
2021/09/19 09:37:30;;;;;;;;;;;;;;;16.51;72.44;99732.41;5035805;28;19968;-61
2021/09/19 09:40:18;;;;;;;;;;;;;;;16.51;72.19;99730.63;5035737;28;20380;-61
2021/09/19 09:43:10;;;;;;;;;;;;;;;16.54;72.39;99740.22;5035399;28;20296;-63
2021/09/19 09:45:54;;;;;;;;;;;;;;;16.55;72.36;99737.56;5035173;28;19975;-63
2021/09/19 09:48:38;;;;;;;;;;;;;;;16.57;72.20;99734.94;5035578;28;20407;-63
2021/09/19 09:51:30;;;;;;;;;;;;;;;16.59;72.19;99743.59;5035368;28;20030;-61
2021/09/19 09:54:15;;;;;;;;;;;;;;;16.60;72.14;99732.25;5035193;28;20391;-61
2021/09/19 09:56:59;;;;;;;;;;;;;;;16.61;72.41;99741.00;5035589;28;19928;-63
2021/09/19 09:59:44;;;;;;;;;;;;;;;16.62;72.20;99745.34;5035394;28;19944;-61
2021/09/19 10:02:29;;;;;;;;;;;;;;;16.64;72.27;99733.97;5034162;28;19964;-62
2021/09/19 10:05:14;;;;;;;;;;;;;;;16.66;72.10;99741.81;5034567;28;19927;-61
2021/09/19 10:08:00;;;;;;;;;;;;;;;16.67;72.15;99736.53;5034031;28;19944;-61
2021/09/19 10:10:44;;;;;;;;;;;;;;;16.70;72.18;99743.47;5034503;28;19983;-61
2021/09/19 10:13:28;;;;;;;;;;;;;;;16.70;72.03;99733.88;5034021;28;20404;-63
2021/09/19 10:16:14;;;;;;;;;;;;;;;16.73;72.10;99735.59;5034491;28;19927;-63
2021/09/19 10:19:00;;;;;;;;;;;;;;;16.74;72.10;99738.16;5033688;28;19972;-63
2021/09/19 10:21:44;;;;;;;;;;;;;;;16.75;72.13;99731.19;5034489;28;20300;-61
2021/09/19 10:24:35;;;;;;;;;;;;;;;16.78;72.00;99732.88;5034764;28;19992;-62
2021/09/19 10:27:23;;;;;;;;;;;;;;;16.78;72.02;99735.50;5033874;28;19975;-61
2021/09/19 10:30:10;;;;;;;;;;;;;;;16.79;72.03;99724.16;5033815;28;19928;-61
2021/09/19 10:33:00;;;;;;;;;;;;;;;16.81;71.82;99731.13;5034180;28;20470;-61
2021/09/19 10:35:49;;;;;;;;;;;;;;;16.81;71.94;99725.88;5034149;28;20296;-61
2021/09/19 10:38:34;;;;;;;;;;;;;;;16.83;71.88;99718.84;5034712;28;19974;-61
2021/09/19 10:41:19;;;;;;;;;;;;;;;16.86;71.89;99725.81;5033825;28;19928;-63
2021/09/19 10:44:03;;;;;;;;;;;;;;;16.86;72.10;99724.03;5034162;28;19975;-61
2021/09/19 10:46:49;;;;;;;;;;;;;;;16.88;71.99;99724.88;5034101;28;20387;-61
2021/09/19 10:49:34;;;;;;;;;;;;;;;16.89;71.98;99731.84;5033971;28;19927;-61
2021/09/19 10:52:22;;;;;;;;;;;;;;;16.90;72.00;99717.88;5047224;28;19979;-61
2021/09/19 10:55:17;;;;;;;;;;;;;;;16.91;71.69;99723.97;5032961;28;20288;-62
2021/09/19 10:58:01;;;;;;;;;;;;;;;16.93;71.94;99729.19;5033981;28;20395;-61
2021/09/19 11:01:05;;;;;;;;;;;;;;;16.93;71.94;99722.19;5032810;28;20503;-63
2021/09/19 11:04:03;;;;;;;;;;;;;;;16.93;71.69;99724.81;5034311;28;20395;-63
2021/09/19 11:06:49;;;;;;;;;;;;;;;16.94;71.85;99729.16;5033164;28;19967;-63
2021/09/19 11:09:35;;;;;;;;;;;;;;;16.96;71.62;99723.94;5047368;28;19929;-63
2021/09/19 11:12:19;;;;;;;;;;;;;;;16.95;71.75;99727.47;5032685;28;20350;-61
2021/09/19 11:15:07;;;;;;;;;;;;;;;16.97;71.71;99728.31;5033976;28;20335;-61
2021/09/19 11:17:51;;;;;;;;;;;;;;;17.00;71.55;99730.84;5033187;28;19971;-61
2021/09/19 11:20:37;;;;;;;;;;;;;;;16.99;71.49;99730.00;5034212;28;20280;-61
2021/09/19 11:23:30;;;;;;;;;;;;;;;17.00;71.59;99731.72;5033032;28;20396;-61
2021/09/19 11:26:19;;;;;;;;;;;;;;;17.01;71.74;99730.84;5032737;28;20438;-61
2021/09/19 11:29:05;;;;;;;;;;;;;;;17.02;71.44;99726.47;5033198;28;19971;-61
2021/09/19 11:31:49;;;;;;;;;;;;;;;17.03;71.72;99730.81;5033300;28;19967;-61
2021/09/19 11:34:32;;;;;;;;;;;;;;;17.03;71.53;99728.19;5034022;28;19928;-61
2021/09/19 11:37:17;;;;;;;;;;;;;;;17.04;71.46;99732.53;5032778;28;19943;-61
2021/09/19 11:40:01;;;;;;;;;;;;;;;17.04;71.69;99729.91;5033370;28;19983;-61
2021/09/19 11:42:45;;;;;;;;;;;;;;;17.05;71.45;99729.88;5033676;28;20071;-61
2021/09/19 11:45:29;;;;;;;;;;;;;;;17.06;71.54;99728.16;5033940;28;19928;-61
2021/09/19 11:48:14;;;;;;;;;;;;;;;17.07;71.30;99726.38;5033156;28;19928;-61
2021/09/19 11:51:00;;;;;;;;;;;;;;;17.08;71.37;99728.09;5046624;28;19967;-61
2021/09/19 11:53:46;;;;;;;;;;;;;;;17.09;71.61;99725.50;5032003;28;19928;-61
2021/09/19 11:56:30;;;;;;;;;;;;;;;17.11;71.27;99730.69;5033752;28;19928;-61
2021/09/19 11:59:16;;;;;;;;;;;;;;;17.13;71.40;99734.16;5033445;28;19928;-63
2021/09/19 12:02:01;;;;;;;;;;;;;;;17.13;71.41;99732.38;5032535;28;19928;-64
2021/09/19 12:04:46;;;;;;;;;;;;;;;17.14;71.31;99722.78;5033360;28;19927;-62
2021/09/19 12:07:32;;;;;;;;;;;;;;;17.14;71.25;99718.41;5032167;28;20510;-62
2021/09/19 12:10:21;;;;;;;;;;;;;;;17.16;71.23;99719.25;5032292;28;20007;-63
2021/09/19 12:13:22;;;;;;;;;;;;;;;17.17;71.06;99718.34;5032796;28;19928;-63
2021/09/19 12:16:14;;;;;;;;;;;;;;;17.17;71.23;99718.34;5032182;28;19959;-63
2021/09/19 12:18:58;;;;;;;;;;;;;;;17.20;71.12;99720.94;5033434;28;19927;-62
2021/09/19 12:21:51;;;;;;;;;;;;;;;17.20;71.24;99720.94;5037021;28;19928;-61
2021/09/19 12:24:36;;;;;;;;;;;;;;;17.23;71.08;99719.16;5036807;28;19928;-62
2021/09/19 12:27:22;;;;;;;;;;;;;;;17.25;71.23;99727.84;5036403;28;19932;-62
2021/09/19 12:30:12;;;;;;;;;;;;;;;17.25;70.97;99718.22;5036804;28;20430;-61
2021/09/19 12:32:56;;;;;;;;;;;;;;;17.26;71.01;99714.72;5035927;28;19928;-62
2021/09/19 12:35:40;;;;;;;;;;;;;;;17.27;71.05;99707.75;5036249;28;20292;-61
2021/09/19 12:38:29;;;;;;;;;;;;;;;17.28;71.03;99705.09;5036581;28;20288;-61
2021/09/19 12:41:17;;;;;;;;;;;;;;;17.29;70.97;99711.19;5035930;28;19929;-61
2021/09/19 12:44:01;;;;;;;;;;;;;;;17.29;70.96;99709.44;5035479;28;19927;-61
2021/09/19 12:46:52;;;;;;;;;;;;;;;17.31;70.95;99712.91;5035314;28;19927;-61
2021/09/19 12:49:44;;;;;;;;;;;;;;;17.31;70.80;99706.78;5036482;28;19979;-61
2021/09/19 12:52:31;;;;;;;;;;;;;;;17.32;71.02;99698.91;5036119;28;19932;-61
2021/09/19 12:55:17;;;;;;;;;;;;;;;17.32;70.88;99701.53;5036306;28;20026;-62
2021/09/19 12:58:01;;;;;;;;;;;;;;;17.34;70.74;99702.38;5035649;28;20411;-62
2021/09/19 13:00:46;;;;;;;;;;;;;;;17.34;70.92;99702.38;5036713;28;19983;-62
2021/09/19 13:03:34;;;;;;;;;;;;;;;17.35;70.66;99700.59;5035423;28;19968;-62
2021/09/19 13:06:24;;;;;;;;;;;;;;;17.35;70.53;99687.50;5035556;28;19950;-63
2021/09/19 13:09:08;;;;;;;;;;;;;;;17.34;70.79;99691.91;5035177;28;20291;-63
2021/09/19 13:11:57;;;;;;;;;;;;;;;17.36;70.46;99697.09;5036173;28;20398;-62
2021/09/19 13:14:42;;;;;;;;;;;;;;;17.37;70.61;99687.47;5034987;28;19928;-61
2021/09/19 13:17:28;;;;;;;;;;;;;;;17.37;70.45;99688.34;5035830;28;20422;-61
2021/09/19 13:20:13;;;;;;;;;;;;;;;17.37;70.54;99690.09;5036270;28;19964;-61
2021/09/19 13:22:57;;;;;;;;;;;;;;;17.37;70.53;99685.72;5036065;28;19927;-61
2021/09/19 13:25:43;;;;;;;;;;;;;;;17.38;70.54;99686.59;5036324;28;19931;-62
2021/09/19 13:28:28;;;;;;;;;;;;;;;17.37;70.33;99688.34;5035756;28;19932;-61
2021/09/19 13:31:11;;;;;;;;;;;;;;;17.39;70.36;99690.94;5035318;28;20035;-62
2021/09/19 13:33:55;;;;;;;;;;;;;;;17.38;70.30;99692.72;5035653;28;19928;-61
2021/09/19 13:36:40;;;;;;;;;;;;;;;17.39;70.42;99688.31;5035515;28;20293;-61
2021/09/19 13:39:24;;;;;;;;;;;;;;;17.39;70.53;99691.81;5034569;28;20336;-61
2021/09/19 13:42:11;;;;;;;;;;;;;;;17.38;70.45;99697.94;5035148;28;19928;-61
2021/09/19 13:44:55;;;;;;;;;;;;;;;17.39;70.31;99694.44;5034481;28;20023;-62
2021/09/19 13:47:41;;;;;;;;;;;;;;;17.40;70.37;99695.28;5035058;28;19928;-61
2021/09/19 13:50:27;;;;;;;;;;;;;;;17.41;70.37;99691.78;5034214;28;19972;-61
2021/09/19 13:53:13;;;;;;;;;;;;;;;17.41;70.27;99692.66;5035066;28;19931;-67
2021/09/19 13:56:00;;;;;;;;;;;;;;;17.42;70.12;99702.25;5034531;28;20059;-61
2021/09/19 13:58:44;;;;;;;;;;;;;;;17.43;70.21;99703.09;5034452;28;19928;-61
2021/09/19 14:01:29;;;;;;;;;;;;;;;17.43;70.23;99705.72;5035035;28;19990;-61
2021/09/19 14:04:13;;;;;;;;;;;;;;;17.43;69.96;99700.47;5035067;28;19971;-63
2021/09/19 14:06:56;;;;;;;;;;;;;;;17.42;70.06;99704.88;5034093;28;19975;-63
2021/09/19 14:09:41;;;;;;;;;;;;;;;17.44;69.94;99702.19;5035195;28;19932;-63
2021/09/19 14:12:24;;;;;;;;;;;;;;;17.43;70.10;99706.59;5034628;28;19987;-61
2021/09/19 14:15:09;;;;;;;;;;;;;;;17.43;70.08;99710.94;5035261;28;20440;-61
2021/09/19 14:17:52;;;;;;;;;;;;;;;17.44;70.10;99707.44;5034106;28;19928;-62
2021/09/19 14:20:37;;;;;;;;;;;;;;;17.44;70.03;99703.06;5034948;28;20056;-63
2021/09/19 14:23:20;;;;;;;;;;;;;;;17.44;70.07;99697.81;5034534;28;19967;-63